Time;durP1;ratioP1;P1;durP2;ratioP2;P2;SDS_P1;SDS_P2;PMS_P1;PMS_P2;Temp;Humidity;BMP_temperature;BMP_pressure;BME280_temperature;BME280_humidity;BME280_pressure;Samples;Min_cycle;Max_cycle;Signal;HPM_P1;HPM_P2
2023/01/25 00:01:22;;;;;;;29.23;18.65;;;;;;;-0.57;95.75;103692.56;5038741;28;20033;-82
2023/01/25 00:03:47;;;;;;;28.40;17.73;;;;;;;-0.50;95.96;103708.78;5040952;28;20419;-82
2023/01/25 00:06:13;;;;;;;29.02;19.02;;;;;;;-0.44;96.21;103713.94;5041945;28;20025;-81
2023/01/25 00:08:38;;;;;;;30.20;18.88;;;;;;;-0.55;95.64;103694.28;5038009;28;20025;-81
2023/01/25 00:11:03;;;;;;;26.48;17.02;;;;;;;-0.46;96.66;103710.50;5039236;28;20028;-79
2023/01/25 00:13:29;;;;;;;29.98;19.45;;;;;;;-0.49;96.28;103705.38;5033912;28;20057;-81
2023/01/25 00:16:01;;;;;;;28.65;19.98;;;;;;;-0.52;96.32;103700.22;5036505;28;20021;-81
2023/01/25 00:18:26;;;;;;;28.58;19.00;;;;;;;-0.52;96.13;103705.31;5031728;28;20057;-83
2023/01/25 00:20:51;;;;;;;27.67;18.15;;;;;;;-0.51;95.74;103712.16;5029910;28;20536;-81
2023/01/25 00:23:17;;;;;;;30.73;19.27;;;;;;;-0.55;96.14;103703.63;5038902;28;20524;-82
2023/01/25 00:25:42;;;;;;;28.35;17.70;;;;;;;-0.59;95.78;103700.16;5045228;28;20409;-83
2023/01/25 00:28:07;;;;;;;28.02;19.10;;;;;;;-0.60;95.59;103698.47;5032866;28;20047;-81
2023/01/25 00:30:33;;;;;;;29.42;19.08;;;;;;;-0.61;95.70;103691.66;5025314;28;20035;-81
2023/01/25 00:33:36;;;;;;;29.45;18.92;;;;;;;-0.61;95.84;103694.22;5031683;28;20036;-81
2023/01/25 00:36:21;;;;;;;29.55;19.13;;;;;;;-0.63;95.96;103697.56;5019182;28;20049;-80
2023/01/25 00:38:47;;;;;;;28.77;18.13;;;;;;;-0.69;95.52;103692.41;5038656;28;20098;-81
2023/01/25 00:41:12;;;;;;;29.05;17.20;;;;;;;-0.76;95.64;103685.53;5044633;28;20029;-81
2023/01/25 00:43:37;;;;;;;28.23;17.83;;;;;;;-0.76;95.83;103680.44;5039967;28;20337;-81
2023/01/25 00:46:03;;;;;;;27.77;16.65;;;;;;;-0.72;95.58;103688.13;5045728;28;20029;-81
2023/01/25 00:48:28;;;;;;;29.60;18.08;;;;;;;-0.72;96.17;103682.19;5046968;28;20033;-81
2023/01/25 00:50:53;;;;;;;30.63;18.33;;;;;;;-0.70;96.18;103691.53;5046687;28;20081;-80
2023/01/25 00:53:19;;;;;;;30.23;18.77;;;;;;;-0.68;96.06;103679.69;5042932;28;20060;-81
2023/01/25 00:55:52;;;;;;;29.27;18.67;;;;;;;-0.68;96.47;103682.25;5043280;28;20045;-78
2023/01/25 00:58:17;;;;;;;30.35;20.20;;;;;;;-0.76;96.31;103671.09;5038192;28;20029;-80
2023/01/25 01:00:42;;;;;;;29.58;18.52;;;;;;;-0.75;96.22;103677.88;5040063;28;20273;-81
2023/01/25 01:03:08;;;;;;;28.52;18.80;;;;;;;-0.73;95.87;103675.38;5035497;28;20091;-80
2023/01/25 01:05:35;;;;;;;27.75;17.48;;;;;;;-0.73;95.90;103688.13;5043734;28;20037;-81
2023/01/25 01:08:00;;;;;;;30.17;18.50;;;;;;;-0.77;95.70;103679.56;5039560;28;20112;-81
2023/01/25 01:10:25;;;;;;;30.58;18.70;;;;;;;-0.75;96.19;103682.97;5044421;28;20113;-81
2023/01/25 01:12:51;;;;;;;30.95;17.92;;;;;;;-0.75;96.10;103677.88;5041733;28;20067;-82
2023/01/25 01:15:16;;;;;;;28.15;17.02;;;;;;;-0.76;95.82;103681.28;5042161;28;20111;-82
2023/01/25 01:17:41;;;;;;;30.17;18.02;;;;;;;-0.77;95.64;103673.63;5037199;28;20053;-81
2023/01/25 01:20:08;;;;;;;29.92;17.40;;;;;;;-0.81;95.59;103672.72;5041807;28;20799;-81
2023/01/25 01:22:33;;;;;;;30.77;19.77;;;;;;;-0.91;96.08;103660.75;5039216;28;20029;-81
2023/01/25 01:24:58;;;;;;;31.63;20.65;;;;;;;-0.84;95.57;103680.34;5042771;28;20028;-81
2023/01/25 01:27:23;;;;;;;31.92;18.33;;;;;;;-0.87;95.74;103673.50;5047065;28;20033;-81
2023/01/25 01:29:49;;;;;;;30.17;18.83;;;;;;;-0.87;95.47;103686.25;5039456;28;20044;-81
2023/01/25 01:32:14;;;;;;;31.90;19.95;;;;;;;-0.91;95.31;103681.13;5044126;28;20044;-81
2023/01/25 01:34:39;;;;;;;31.42;18.98;;;;;;;-0.90;95.57;103677.72;5046876;28;20036;-80
2023/01/25 01:37:05;;;;;;;30.58;19.02;;;;;;;-0.90;95.28;103680.28;5044812;28;20025;-81
2023/01/25 01:39:30;;;;;;;30.25;19.80;;;;;;;-0.87;95.16;103683.69;5039479;28;20016;-81
2023/01/25 01:41:55;;;;;;;31.08;19.38;;;;;;;-0.89;94.73;103679.44;5032119;28;20196;-80
2023/01/25 01:44:51;;;;;;;31.30;20.17;;;;;;;-0.88;95.58;103676.03;5039112;28;20028;-81
2023/01/25 01:47:35;;;;;;;31.80;19.63;;;;;;;-0.94;95.63;103681.91;5036485;28;20506;-82
2023/01/25 01:50:05;;;;;;;30.10;18.75;;;;;;;-0.94;95.26;103675.97;5031075;28;20033;-81
2023/01/25 01:52:36;;;;;;;31.10;19.65;;;;;;;-0.92;95.63;103681.94;5039885;28;20120;-81
2023/01/25 01:55:03;;;;;;;32.03;19.38;;;;;;;-0.91;95.31;103686.22;5038265;28;20029;-81
2023/01/25 01:57:36;;;;;;;33.80;20.48;;;;;;;-0.91;95.54;103681.13;5033560;28;20024;-80
2023/01/25 02:00:14;;;;;;;35.08;20.27;;;;;;;-0.90;95.64;103677.72;5044306;28;20033;-81
2023/01/25 02:02:40;;;;;;;33.20;19.23;;;;;;;-0.90;95.48;103665.00;5035975;28;20083;-81
2023/01/25 02:05:13;;;;;;;33.15;20.02;;;;;;;-0.93;95.81;103667.50;5032195;28;20427;-81
2023/01/25 02:07:39;;;;;;;31.88;18.90;;;;;;;-0.95;96.10;103659.84;5042370;28;20032;-81
2023/01/25 02:10:08;;;;;;;31.30;19.33;;;;;;;-0.92;96.64;103664.97;5040476;28;20460;-81
2023/01/25 02:12:35;;;;;;;30.92;19.67;;;;;;;-0.96;96.01;103662.38;5045946;28;20035;-81
2023/01/25 02:15:01;;;;;;;28.65;18.90;;;;;;;-0.97;95.70;103655.56;5042214;28;20501;-81
2023/01/25 02:17:29;;;;;;;31.08;18.98;;;;;;;-0.93;95.57;103664.94;5041950;28;20300;-81
2023/01/25 02:20:27;;;;;;;31.70;19.02;;;;;;;-0.99;96.06;103649.59;5035528;28;20021;-80
2023/01/25 02:23:01;;;;;;;30.95;20.13;;;;;;;-0.94;96.09;103656.44;5031069;28;20436;-81
2023/01/25 02:25:27;;;;;;;32.05;20.05;;;;;;;-0.93;95.83;103652.19;5031108;28;20032;-80
2023/01/25 02:28:21;;;;;;;30.88;19.88;;;;;;;-0.94;95.58;103651.34;5032225;28;20456;-81
2023/01/25 02:30:47;;;;;;;33.13;20.63;;;;;;;-0.98;95.58;103643.66;5025812;28;20042;-81
2023/01/25 02:33:13;;;;;;;31.17;18.70;;;;;;;-1.00;95.59;103643.63;5034345;28;20028;-81
2023/01/25 02:35:53;;;;;;;32.83;20.70;;;;;;;-0.95;95.82;103648.78;5039535;28;20033;-81
2023/01/25 02:38:20;;;;;;;32.15;20.33;;;;;;;-0.96;95.93;103652.19;5039813;28;20429;-82
2023/01/25 02:40:54;;;;;;;31.35;19.05;;;;;;;-0.96;95.54;103647.09;5036065;28;20021;-81
2023/01/25 02:43:22;;;;;;;32.58;19.38;;;;;;;-0.95;95.39;103648.78;5042114;28;20025;-80
2023/01/25 02:45:55;;;;;;;31.15;19.30;;;;;;;-1.00;95.12;103645.34;5040835;28;20473;-80
2023/01/25 02:48:20;;;;;;;32.47;20.35;;;;;;;-1.07;94.54;103632.53;5034322;28;20462;-80
2023/01/25 02:50:45;;;;;;;32.65;20.20;;;;;;;-1.05;95.42;103637.63;5043624;28;20044;-81
2023/01/25 02:53:10;;;;;;;33.58;21.00;;;;;;;-1.00;95.47;103651.28;5046145;28;20037;-81
2023/01/25 02:55:36;;;;;;;35.30;21.90;;;;;;;-1.05;96.04;103631.69;5041565;28;20024;-81
2023/01/25 02:58:01;;;;;;;32.47;19.98;;;;;;;-1.03;95.58;103640.19;5040293;28;20033;-81
2023/01/25 03:00:27;;;;;;;33.75;21.25;;;;;;;-1.02;95.94;103636.84;5044729;28;20021;-81
2023/01/25 03:02:52;;;;;;;33.25;19.77;;;;;;;-1.02;95.03;103636.84;5039187;28;20122;-81
2023/01/25 03:05:17;;;;;;;35.65;21.30;;;;;;;-0.99;95.58;103631.75;5038994;28;20071;-81
2023/01/25 03:07:43;;;;;;;32.47;18.95;;;;;;;-1.00;95.64;103635.16;5038118;28;20840;-81
2023/01/25 03:10:09;;;;;;;36.00;22.00;;;;;;;-1.09;95.78;103633.31;5042653;28;20464;-81
2023/01/25 03:12:34;;;;;;;34.35;20.40;;;;;;;-1.07;95.57;103624.03;5037087;28;20112;-80
2023/01/25 03:14:59;;;;;;;35.38;21.73;;;;;;;-1.02;96.02;103634.28;5038124;28;20101;-81
2023/01/25 03:17:25;;;;;;;35.95;21.08;;;;;;;-1.09;96.00;103611.28;5043949;28;20025;-81
2023/01/25 03:19:51;;;;;;;35.78;21.70;;;;;;;-1.10;95.68;103609.56;5043802;28;20017;-80
2023/01/25 03:22:16;;;;;;;34.80;21.60;;;;;;;-1.11;95.86;103612.94;5033589;28;20626;-82
2023/01/25 03:24:41;;;;;;;37.22;20.75;;;;;;;-1.13;96.09;103601.91;5035685;28;20495;-83
2023/01/25 03:27:09;;;;;;;35.70;21.80;;;;;;;-1.14;95.61;103597.63;5037998;28;20479;-81
2023/01/25 03:29:35;;;;;;;35.63;21.02;;;;;;;-1.09;95.86;103593.47;5040403;28;20033;-81
2023/01/25 03:32:01;;;;;;;34.30;21.50;;;;;;;-1.07;96.31;103599.41;5033875;28;20056;-81
2023/01/25 03:34:26;;;;;;;36.05;20.33;;;;;;;-1.11;96.40;103581.53;5034841;28;20287;-81
2023/01/25 03:36:52;;;;;;;35.83;21.70;;;;;;;-1.04;96.26;103590.09;5039765;28;20373;-81
2023/01/25 03:39:17;;;;;;;37.05;23.15;;;;;;;-1.04;96.23;103585.00;5034819;28;20388;-80
2023/01/25 03:41:42;;;;;;;37.60;22.48;;;;;;;-1.07;96.22;103594.31;5042884;28;20130;-80
2023/01/25 03:44:10;;;;;;;35.40;21.13;;;;;;;-1.05;96.31;103593.47;5038395;28;20567;-80
2023/01/25 03:46:36;;;;;;;36.13;22.58;;;;;;;-1.09;96.18;103590.03;5037169;28;20029;-81
2023/01/25 03:49:01;;;;;;;39.97;23.52;;;;;;;-1.09;96.02;103598.56;5039889;28;20067;-80
2023/01/25 03:51:27;;;;;;;37.33;20.92;;;;;;;-1.15;95.93;103585.75;5038207;28;20087;-81
2023/01/25 03:53:52;;;;;;;34.95;21.80;;;;;;;-1.12;95.85;103588.31;5041522;28;20061;-80
2023/01/25 03:56:19;;;;;;;38.83;24.27;;;;;;;-1.12;96.13;103590.88;5041514;28;20492;-81
2023/01/25 03:58:45;;;;;;;35.70;21.20;;;;;;;-1.09;96.10;103596.00;5043938;28;20025;-82
2023/01/25 04:01:11;;;;;;;36.53;22.77;;;;;;;-1.13;95.57;103589.16;5036222;28;20120;-82
2023/01/25 04:03:36;;;;;;;39.40;24.35;;;;;;;-1.08;95.88;103592.63;5032434;28;20108;-80
2023/01/25 04:06:03;;;;;;;39.35;24.05;;;;;;;-1.08;96.31;103597.72;5042145;28;20071;-81
2023/01/25 04:08:29;;;;;;;37.97;22.95;;;;;;;-1.13;95.80;103584.06;5040369;28;20253;-80
2023/01/25 04:11:03;;;;;;;36.63;21.88;;;;;;;-1.14;95.97;103574.72;5040646;28;20036;-81
2023/01/25 04:13:29;;;;;;;40.60;24.15;;;;;;;-1.12;95.34;103580.69;5044715;28;20039;-81
2023/01/25 04:15:55;;;;;;;38.80;23.25;;;;;;;-1.13;96.35;103588.31;5045313;28;20033;-81
2023/01/25 04:18:20;;;;;;;40.55;25.42;;;;;;;-1.15;95.52;103573.03;5038515;28;20099;-81
2023/01/25 04:20:54;;;;;;;40.88;24.30;;;;;;;-1.15;95.63;103575.56;5041354;28;20021;-81
2023/01/25 04:23:20;;;;;;;38.67;21.77;;;;;;;-1.19;95.60;103571.25;5041479;28;20025;-80
2023/01/25 04:26:00;;;;;;;40.38;23.67;;;;;;;-1.19;95.29;103568.72;5039556;28;20033;-81
2023/01/25 04:28:26;;;;;;;36.83;23.17;;;;;;;-1.22;95.43;103567.81;5034862;28;20083;-81
2023/01/25 04:30:54;;;;;;;38.03;22.05;;;;;;;-1.20;95.70;103567.00;5042465;28;20060;-81
2023/01/25 04:33:19;;;;;;;38.05;22.45;;;;;;;-1.22;95.73;103561.03;5031506;28;20108;-80
2023/01/25 04:35:45;;;;;;;41.72;25.08;;;;;;;-1.20;95.79;103561.06;5044215;28;20107;-81
2023/01/25 04:38:10;;;;;;;43.38;25.15;;;;;;;-1.21;95.75;103560.19;5041567;28;20044;-81
2023/01/25 04:40:36;;;;;;;43.97;25.25;;;;;;;-1.18;95.93;103565.31;5032128;28;20033;-81
2023/01/25 04:43:01;;;;;;;42.70;25.85;;;;;;;-1.18;95.84;103565.31;5037883;28;20504;-82
2023/01/25 04:45:27;;;;;;;46.63;27.75;;;;;;;-1.22;95.90;103563.56;5038196;28;20029;-81
2023/01/25 04:47:58;;;;;;;42.88;24.00;;;;;;;-1.19;95.91;103568.72;5030675;28;20037;-81
2023/01/25 04:50:23;;;;;;;45.15;24.40;;;;;;;-1.19;96.17;103563.63;5032847;28;20140;-81
2023/01/25 04:52:49;;;;;;;45.22;26.50;;;;;;;-1.18;95.50;103564.47;5036996;28;20578;-81
2023/01/25 04:55:14;;;;;;;43.17;25.35;;;;;;;-1.19;96.23;103552.59;5038310;28;20059;-81
2023/01/25 04:57:40;;;;;;;41.05;24.25;;;;;;;-1.17;95.58;103561.94;5032566;28;20124;-80
2023/01/25 05:00:08;;;;;;;45.67;24.75;;;;;;;-1.19;96.04;103548.34;5034051;28;20025;-81
2023/01/25 05:02:33;;;;;;;41.33;23.50;;;;;;;-1.23;95.32;103541.50;5043398;28;20553;-81
2023/01/25 05:04:58;;;;;;;44.47;26.33;;;;;;;-1.24;95.49;103544.03;5043247;28;20036;-79
2023/01/25 05:07:24;;;;;;;46.45;25.55;;;;;;;-1.21;95.74;103544.91;5041214;28;20477;-81
2023/01/25 05:09:49;;;;;;;45.25;26.05;;;;;;;-1.23;95.53;103541.50;5042007;28;20025;-81
2023/01/25 05:12:14;;;;;;;43.25;24.88;;;;;;;-1.28;95.40;103532.09;5041188;28;20036;-81
2023/01/25 05:14:40;;;;;;;45.22;26.48;;;;;;;-1.22;95.71;103540.66;5041896;28;20461;-80
2023/01/25 05:17:06;;;;;;;45.70;25.90;;;;;;;-1.22;95.56;103540.66;5034325;28;20453;-81
2023/01/25 05:19:32;;;;;;;43.20;24.40;;;;;;;-1.20;95.75;103536.47;5038915;28;20024;-81
2023/01/25 05:21:59;;;;;;;48.10;27.52;;;;;;;-1.20;95.62;103535.59;5032088;28;20120;-81
2023/01/25 05:24:29;;;;;;;46.25;27.58;;;;;;;-1.20;96.08;103541.56;5038254;28;20060;-81
2023/01/25 05:27:04;;;;;;;49.63;28.50;;;;;;;-1.21;95.78;103537.28;5039419;28;20025;-81
2023/01/25 05:29:34;;;;;;;47.58;27.65;;;;;;;-1.21;96.07;103532.19;5038907;28;20036;-81
2023/01/25 05:32:01;;;;;;;48.83;27.50;;;;;;;-1.24;96.54;103523.66;5039838;28;20036;-80
2023/01/25 05:34:26;;;;;;;47.70;28.00;;;;;;;-1.25;96.65;103525.38;5034520;28;20065;-80
2023/01/25 05:36:54;;;;;;;47.55;26.73;;;;;;;-1.24;96.84;103529.63;5043739;28;20465;-81
2023/01/25 05:39:19;;;;;;;45.73;24.80;;;;;;;-1.26;96.30;103521.13;5035632;28;20036;-81
2023/01/25 05:41:44;;;;;;;45.05;26.15;;;;;;;-1.23;96.72;103520.28;5037962;28;20385;-81
2023/01/25 05:44:10;;;;;;;46.35;26.27;;;;;;;-1.21;96.72;103524.53;5044050;28;20029;-81
2023/01/25 05:46:36;;;;;;;48.17;25.67;;;;;;;-1.24;96.24;103524.53;5043200;28;20503;-81
2023/01/25 05:49:01;;;;;;;49.20;27.48;;;;;;;-1.21;96.43;103527.09;5038503;28;20047;-80
2023/01/25 05:51:27;;;;;;;51.60;31.08;;;;;;;-1.23;96.21;103536.41;5034255;28;20381;-81
2023/01/25 05:53:55;;;;;;;47.97;26.52;;;;;;;-1.24;96.11;103528.75;5034063;28;20094;-81
2023/01/25 05:56:21;;;;;;;51.50;28.48;;;;;;;-1.19;95.91;103532.22;5038556;28;20033;-81
2023/01/25 05:58:54;;;;;;;48.92;26.67;;;;;;;-1.25;96.40;103517.72;5038101;28;20033;-80
2023/01/25 06:01:19;;;;;;;52.50;28.60;;;;;;;-1.25;96.51;103517.72;5040666;28;20059;-81
2023/01/25 06:03:45;;;;;;;51.88;29.90;;;;;;;-1.26;96.86;103536.38;5048015;28;20021;-81
2023/01/25 06:06:11;;;;;;;53.28;30.52;;;;;;;-1.25;96.85;103527.91;5042382;28;20658;-80
2023/01/25 06:08:36;;;;;;;55.15;29.33;;;;;;;-1.29;96.97;103515.97;5047634;28;20040;-80
2023/01/25 06:11:13;;;;;;;54.78;30.00;;;;;;;-1.27;96.82;103529.56;5044223;28;20044;-81
2023/01/25 06:13:38;;;;;;;55.22;30.55;;;;;;;-1.32;96.69;103528.66;5035537;28;20029;-81
2023/01/25 06:16:04;;;;;;;56.22;30.10;;;;;;;-1.35;96.75;103515.91;5032890;28;20688;-81
2023/01/25 06:18:31;;;;;;;53.80;28.38;;;;;;;-1.28;96.56;103527.88;5035759;28;20028;-81
2023/01/25 06:20:57;;;;;;;54.67;30.08;;;;;;;-1.31;96.42;103522.75;5028745;28;20048;-81
2023/01/25 06:23:23;;;;;;;57.70;31.63;;;;;;;-1.29;96.77;103531.25;5034374;28;20033;-81
2023/01/25 06:25:48;;;;;;;58.53;29.63;;;;;;;-1.29;96.38;103536.34;5031099;28;20032;-81
2023/01/25 06:28:14;;;;;;;59.22;32.47;;;;;;;-1.33;96.05;103534.59;5028912;28;20036;-80
2023/01/25 06:30:39;;;;;;;56.08;31.77;;;;;;;-1.29;96.38;103543.97;5033683;28;20017;-81
2023/01/25 06:33:04;;;;;;;55.92;29.98;;;;;;;-1.33;96.46;103534.59;5041480;28;20074;-80
2023/01/25 06:35:31;;;;;;;54.92;30.05;;;;;;;-1.34;96.27;103538.84;5042733;28;20487;-80
2023/01/25 06:37:58;;;;;;;56.63;30.83;;;;;;;-1.33;96.84;103539.69;5034629;28;20021;-80
2023/01/25 06:40:24;;;;;;;55.38;30.33;;;;;;;-1.32;96.70;103536.28;5032078;28;20026;-80
2023/01/25 06:42:50;;;;;;;57.95;31.35;;;;;;;-1.31;96.75;103530.38;5029263;28;20041;-78
2023/01/25 06:45:15;;;;;;;58.70;31.73;;;;;;;-1.32;96.23;103521.00;5032799;28;20233;-81
2023/01/25 06:47:40;;;;;;;58.15;31.08;;;;;;;-1.32;96.72;103515.94;5040108;28;20051;-80
2023/01/25 06:50:08;;;;;;;59.90;31.33;;;;;;;-1.33;96.77;103524.41;5036918;28;20083;-81
2023/01/25 06:52:36;;;;;;;59.65;32.83;;;;;;;-1.33;96.65;103524.41;5034136;28;20041;-81
2023/01/25 06:55:06;;;;;;;55.58;29.95;;;;;;;-1.34;96.60;103522.72;5038368;28;20048;-80
2023/01/25 06:57:32;;;;;;;56.97;29.05;;;;;;;-1.32;96.45;103531.19;5033125;28;20469;-81
2023/01/25 06:59:58;;;;;;;56.65;30.88;;;;;;;-1.30;96.41;103532.09;5046351;28;20036;-81
2023/01/25 07:02:23;;;;;;;56.53;28.75;;;;;;;-1.31;96.53;103527.84;5039879;28;20036;-80
2023/01/25 07:04:48;;;;;;;57.35;31.70;;;;;;;-1.35;96.11;103528.63;5046403;28;20035;-80
2023/01/25 07:07:14;;;;;;;56.92;30.55;;;;;;;-1.39;96.43;103521.78;5036495;28;20033;-81
2023/01/25 07:09:39;;;;;;;59.70;31.08;;;;;;;-1.46;95.70;103512.38;5037076;28;20082;-82
2023/01/25 07:12:05;;;;;;;55.70;30.58;;;;;;;-1.50;96.07;103521.66;5037734;28;20070;-81
2023/01/25 07:14:31;;;;;;;55.17;31.00;;;;;;;-1.48;96.60;103524.25;5036809;28;20032;-80
2023/01/25 07:16:57;;;;;;;56.08;29.90;;;;;;;-1.45;96.61;103534.44;5041742;28;20021;-80
2023/01/25 07:19:22;;;;;;;60.40;31.67;;;;;;;-1.46;96.38;103527.66;5035180;28;20076;-80
2023/01/25 07:21:48;;;;;;;59.28;30.83;;;;;;;-1.52;96.82;103517.41;5043184;28;20083;-81
2023/01/25 07:24:16;;;;;;;60.50;31.38;;;;;;;-1.46;96.88;103517.47;5038299;28;20037;-81
2023/01/25 07:26:41;;;;;;;62.17;32.45;;;;;;;-1.46;97.07;103514.94;5038900;28;20462;-82
2023/01/25 07:29:12;;;;;;;54.97;27.83;;;;;;;-1.47;96.86;103506.44;5029935;28;20036;-80
2023/01/25 07:31:38;;;;;;;57.40;29.60;;;;;;;-1.55;96.53;103502.09;5028478;28;20021;-80
2023/01/25 07:34:03;;;;;;;55.78;29.85;;;;;;;-1.55;96.30;103497.84;5039645;28;20067;-80
2023/01/25 07:36:29;;;;;;;55.53;30.88;;;;;;;-1.56;95.60;103510.56;5040230;28;20029;-80
2023/01/25 07:38:55;;;;;;;58.95;30.17;;;;;;;-1.58;96.75;103502.91;5037108;28;20021;-81
2023/01/25 07:41:23;;;;;;;56.78;27.92;;;;;;;-1.61;96.29;103501.19;5032144;28;20029;-81
2023/01/25 07:43:48;;;;;;;56.15;29.05;;;;;;;-1.62;96.49;103507.09;5039022;28;20460;-80
2023/01/25 07:46:15;;;;;;;57.80;30.10;;;;;;;-1.63;96.33;103502.84;5043199;28;20029;-80
2023/01/25 07:48:45;;;;;;;56.47;30.83;;;;;;;-1.60;96.37;103507.16;5039157;28;20029;-81
2023/01/25 07:51:10;;;;;;;59.45;30.88;;;;;;;-1.66;97.05;103490.09;5036531;28;20047;-80
2023/01/25 07:53:40;;;;;;;57.35;30.55;;;;;;;-1.67;96.62;103501.09;5036987;28;20029;-81
2023/01/25 07:56:07;;;;;;;59.58;32.13;;;;;;;-1.62;96.75;103507.09;5035052;28;20472;-81
2023/01/25 07:58:32;;;;;;;60.22;30.45;;;;;;;-1.62;96.50;103509.66;5032210;28;20064;-81
2023/01/25 08:01:08;;;;;;;52.40;27.85;;;;;;;-1.61;96.04;103501.19;5032313;28;20443;-79
2023/01/25 08:03:33;;;;;;;57.10;29.63;;;;;;;-1.62;96.61;103499.47;5036680;28;20032;-80
2023/01/25 08:05:59;;;;;;;58.53;29.67;;;;;;;-1.61;96.58;103493.56;5040661;28;20026;-81
2023/01/25 08:08:24;;;;;;;59.17;28.90;;;;;;;-1.63;96.29;103495.22;5031268;28;20268;-80
2023/01/25 08:10:49;;;;;;;55.78;28.25;;;;;;;-1.64;96.09;103498.59;5032434;28;20412;-78
2023/01/25 08:13:15;;;;;;;58.08;31.00;;;;;;;-1.67;95.94;103498.56;5029339;28;20035;-81
2023/01/25 08:15:40;;;;;;;58.63;30.60;;;;;;;-1.70;96.32;103488.34;5030168;28;20029;-80
2023/01/25 08:18:05;;;;;;;57.95;30.17;;;;;;;-1.73;96.43;103478.13;5032497;28;20156;-81
2023/01/25 08:20:31;;;;;;;56.03;29.52;;;;;;;-1.68;96.49;103486.66;5034247;28;20457;-81
2023/01/25 08:22:56;;;;;;;60.63;31.67;;;;;;;-1.65;96.90;103490.97;5031211;28;20037;-80
2023/01/25 08:25:21;;;;;;;62.47;32.63;;;;;;;-1.62;96.99;103486.75;5032447;28;20029;-80
2023/01/25 08:27:47;;;;;;;61.55;33.28;;;;;;;-1.65;96.86;103475.69;5026243;28;20416;-81
2023/01/25 08:30:12;;;;;;;58.80;28.75;;;;;;;-1.58;96.60;103481.72;5029806;28;20401;-80
2023/01/25 08:32:38;;;;;;;56.38;29.02;;;;;;;-1.55;96.28;103492.75;5032900;28;20535;-81
2023/01/25 08:35:04;;;;;;;58.85;28.80;;;;;;;-1.55;96.48;103481.72;5039598;28;20025;-81
2023/01/25 08:37:29;;;;;;;57.45;30.98;;;;;;;-1.56;96.41;103485.13;5048991;28;20036;-80
2023/01/25 08:39:58;;;;;;;61.60;30.73;;;;;;;-1.53;96.56;103485.16;5037541;28;20059;-80
2023/01/25 08:42:24;;;;;;;58.65;31.00;;;;;;;-1.52;96.18;103486.88;5032317;28;20044;-81
2023/01/25 08:44:50;;;;;;;62.05;31.40;;;;;;;-1.57;95.40;103473.22;5029235;28;20029;-81
2023/01/25 08:47:15;;;;;;;59.35;31.70;;;;;;;-1.58;95.73;103474.94;5034164;28;20037;-80
2023/01/25 08:49:41;;;;;;;59.15;29.77;;;;;;;-1.54;96.39;103473.28;5039325;28;20092;-81
2023/01/25 08:52:06;;;;;;;56.05;30.50;;;;;;;-1.57;96.46;103468.13;5044947;28;20107;-80
2023/01/25 08:54:31;;;;;;;57.10;27.63;;;;;;;-1.57;96.70;103473.22;5036002;28;20695;-81
2023/01/25 08:56:57;;;;;;;55.67;28.77;;;;;;;-1.59;97.11;103465.59;5037552;28;20033;-81
2023/01/25 08:59:22;;;;;;;54.28;27.90;;;;;;;-1.53;96.78;103472.44;5042110;28;20037;-80
2023/01/25 09:01:47;;;;;;;57.40;29.60;;;;;;;-1.50;97.09;103469.91;5047022;28;20041;-80
2023/01/25 09:04:13;;;;;;;62.17;31.55;;;;;;;-1.48;96.65;103470.81;5046596;28;20036;-80
2023/01/25 09:06:38;;;;;;;60.30;29.45;;;;;;;-1.52;96.95;103456.31;5042768;28;20025;-79
2023/01/25 09:09:04;;;;;;;62.95;31.73;;;;;;;-1.50;96.64;103459.72;5042966;28;20370;-80
2023/01/25 09:11:29;;;;;;;63.17;32.33;;;;;;;-1.49;97.00;103453.78;5046151;28;20108;-81
2023/01/25 09:13:55;;;;;;;60.45;30.80;;;;;;;-1.49;96.95;103461.44;5044281;28;20465;-81
2023/01/25 09:16:29;;;;;;;59.70;31.08;;;;;;;-1.50;96.83;103457.19;5039200;28;20029;-80
2023/01/25 09:18:59;;;;;;;62.20;29.85;;;;;;;-1.52;96.71;103452.09;5038971;28;20057;-80
2023/01/25 09:21:25;;;;;;;58.53;29.80;;;;;;;-1.56;96.11;103460.50;5032726;28;20098;-81
2023/01/25 09:23:52;;;;;;;58.70;29.35;;;;;;;-1.62;96.20;103446.03;5034588;28;20029;-81
2023/01/25 09:26:17;;;;;;;62.45;30.52;;;;;;;-1.62;96.60;103443.50;5033332;28;20041;-81
2023/01/25 09:28:47;;;;;;;61.65;31.40;;;;;;;-1.57;96.55;103452.88;5031367;28;20033;-81
2023/01/25 09:31:12;;;;;;;65.03;31.17;;;;;;;-1.61;97.20;103445.22;5036998;28;20029;-81
2023/01/25 09:33:39;;;;;;;62.30;32.20;;;;;;;-1.55;96.80;103454.59;5035175;28;20040;-81
2023/01/25 09:36:06;;;;;;;65.05;33.63;;;;;;;-1.62;97.35;103438.41;5036342;28;20032;-81
2023/01/25 09:38:31;;;;;;;67.03;33.33;;;;;;;-1.59;96.77;103441.84;5056092;28;20100;-81
2023/01/25 09:41:01;;;;;;;65.82;35.08;;;;;;;-1.59;96.99;103444.38;5057322;28;20103;-80
2023/01/25 09:43:36;;;;;;;66.03;33.13;;;;;;;-1.57;97.36;103437.59;5055889;28;20031;-80
2023/01/25 09:46:16;;;;;;;66.97;33.67;;;;;;;-1.53;97.96;103441.91;5057531;28;20067;-81
2023/01/25 09:48:59;;;;;;;63.25;31.75;;;;;;;-1.52;98.03;103443.59;5043162;28;20029;-81
2023/01/25 09:51:44;;;;;;;64.47;31.27;;;;;;;-1.44;97.73;103454.69;5053919;28;20028;-81
2023/01/25 09:54:11;;;;;;;65.03;32.70;;;;;;;-1.46;97.99;103441.97;5049170;28;20036;-81
2023/01/25 09:56:37;;;;;;;68.85;33.20;;;;;;;-1.43;97.74;103442.00;5055426;28;20536;-81
2023/01/25 09:59:13;;;;;;;66.63;33.40;;;;;;;-1.41;97.69;103439.47;5054301;28;20029;-81
2023/01/25 10:01:57;;;;;;;63.22;32.97;;;;;;;-1.36;98.22;103445.47;5057799;28;20029;-81
2023/01/25 10:04:41;;;;;;;65.68;34.05;;;;;;;-1.39;98.17;103433.56;5055636;28;20072;-81
2023/01/25 10:07:24;;;;;;;65.35;34.90;;;;;;;-1.39;98.08;103433.56;5056948;28;20035;-81
2023/01/25 10:09:56;;;;;;;63.65;32.22;;;;;;;-1.40;97.72;103425.91;5035624;28;20485;-81
2023/01/25 10:12:24;;;;;;;63.97;33.65;;;;;;;-1.39;98.41;103432.69;5049472;28;20115;-81
2023/01/25 10:14:51;;;;;;;61.00;31.17;;;;;;;-1.38;98.14;103434.41;5043859;28;20515;-81
2023/01/25 10:17:34;;;;;;;62.85;31.60;;;;;;;-1.37;97.64;103436.13;5046005;28;20115;-81
2023/01/25 10:20:11;;;;;;;65.65;32.95;;;;;;;-1.42;98.12;103427.59;5047725;28;20029;-81
2023/01/25 10:23:06;;;;;;;62.53;30.60;;;;;;;-1.47;97.11;103419.06;5044663;28;20110;-81
2023/01/25 10:25:43;;;;;;;58.42;30.65;;;;;;;-1.47;97.65;103424.16;5043818;28;20048;-79
2023/01/25 10:28:39;;;;;;;57.30;27.90;;;;;;;-1.43;98.17;103420.81;5049191;28;20029;-82
2023/01/25 10:31:18;;;;;;;61.25;29.70;;;;;;;-1.47;98.10;103408.88;5044349;28;20436;-82
2023/01/25 10:33:46;;;;;;;60.05;29.40;;;;;;;-1.44;98.32;103398.72;5051938;28;20413;-81
2023/01/25 10:36:25;;;;;;;60.53;31.35;;;;;;;-1.42;97.99;103397.06;5047685;28;20039;-82
2023/01/25 10:38:58;;;;;;;55.20;27.27;;;;;;;-1.40;98.17;103395.34;5044602;28;20033;-81
2023/01/25 10:41:32;;;;;;;59.78;30.05;;;;;;;-1.41;98.19;103388.56;5050781;28;20036;-81
2023/01/25 10:44:25;;;;;;;58.80;27.60;;;;;;;-1.41;98.30;103388.56;5048452;28;20457;-81
2023/01/25 10:46:54;;;;;;;56.95;28.38;;;;;;;-1.41;98.68;103378.38;5049889;28;20040;-80
2023/01/25 10:49:25;;;;;;;;;;;;;;;-1.32;98.81;103373.34;5052781;28;20112;-81
2023/01/25 10:51:51;;;;;;;58.40;26.35;;;;;;;-1.39;98.48;103371.59;5048833;28;19920;-81
2023/01/25 10:54:16;;;;;;;51.45;25.58;;;;;;;-1.35;98.55;103358.06;5031718;28;20083;-81
2023/01/25 10:56:44;;;;;;;54.90;26.38;;;;;;;-1.34;98.28;103344.50;5040367;28;20108;-81
2023/01/25 10:59:26;;;;;;;56.05;27.98;;;;;;;-1.30;98.59;103340.31;5038917;28;20028;-81
2023/01/25 11:01:52;;;;;;;50.30;24.98;;;;;;;-1.36;97.99;103336.00;5038482;28;20082;-81
2023/01/25 11:04:34;;;;;;;57.35;29.00;;;;;;;-1.30;98.13;103330.97;5048526;28;20469;-81
2023/01/25 11:07:04;;;;;;;55.35;28.00;;;;;;;-1.39;97.70;103321.53;5058921;28;20056;-81
2023/01/25 11:09:33;;;;;;;54.78;28.42;;;;;;;-1.35;98.14;103332.63;5042651;28;20036;-80
2023/01/25 11:12:06;;;;;;;54.28;27.63;;;;;;;-1.38;98.19;103322.41;5043231;28;20032;-80
2023/01/25 11:14:32;;;;;;;56.88;29.75;;;;;;;-1.34;98.19;103326.69;5039263;28;20087;-81